Spokane, WA (99208)

12:25 PM PDT on August 03, 2015 (GMT -0700)
5-Mile Prairie Granger Terrace | | Change Station
CLOSE
Current Station
Personal Weather Station
Location: Spokane, WA
Elevation: 2382 ft
Nearby Weather Stations

Elev 2382 ft 47.75 °N, 117.46 °W | Updated 22 seconds ago

Mostly Cloudy
Mostly Cloudy
80.5 °F
Feels Like 79 °F
N
4.0
Wind Variable Wind from South
Gusts 11.0 mph

Today
High -- | Low -- °F
--% Chance of Precip.
Yesterday
High -- | Low -- °F
Precip. -- in
5:29 AM 8:21 PM
Waning Gibbous, 84% visible
Pressure 29.75 in
Visibility 6.0 miles
Clouds Clear
Heat Index 79 °F
Dew Point 45 °F
Humidity 29%
Rainfall 0.00 in
Snow Depth Not available.
UV 9 out of 12
Pollen 6.60 out of 12
Air Quality Not available.
Flu Activity Not available.
METAR KSFF 031853Z 20005KT 6SM FU CLR 30/06 A2981 RMK AO2 SLP075 T03000056

More Conditions Fewer Conditions

Pressure 29.75 in
Visibility 6.0 miles
Clouds Clear
Heat Index 79 °F
Dew Point 45 °F
Humidity 29%
Rainfall 0.00 in
Snow Depth Not available.
UV 9 out of 12
Pollen 6.60 out of 12
Air Quality Not available.
Flu Activity Not available.
METAR KSFF 031853Z 20005KT 6SM FU CLR 30/06 A2981 RMK AO2 SLP075 T03000056

More Conditions Fewer Conditions

10-Day Weather Forecast

×

Almanac

Astronomy

Aug. 03, 2015 Rise Set
Actual Time
Civil Twilight
Nautical Twilight
Astronomical Twilight
Moon
Length of Visible Light
Length of Day
Tomorrow will be .
, % of the Moon is Illuminated

Today's Extremes

State Highs State Lows

Community

WunderPhotos

Upload Photos

1,843,710 photos uploaded!

WunderBlogs® & News

Nearby

Air Quality

  Air Quality AQ Index Pollutant
Not available.

Snow Depth

Station Depth Elevation

Earthquake Activity

City Distance Mag. Time & Date
Minimum magnitude displayed is 2.5.

Coastal Water Temperatures

Place Temperature

Stations

Nearby Weather Stations

Station Location Temp. Windchill Dew Point Humidity Wind Precip. Elev Updated Type